Time;durP1;ratioP1;P1;durP2;ratioP2;P2;SDS_P1;SDS_P2;PMS_P1;PMS_P2;Temp;Humidity;BMP_temperature;BMP_pressure;BME280_temperature;BME280_humidity;BME280_pressure;Samples;Min_cycle;Max_cycle;Signal;HPM_P1;HPM_P2
2022/04/27 00:01:21;;;;;;;9.65;4.55;;;;;;;;;;5060512;28;20141;-78
2022/04/27 00:03:48;;;;;;;10.43;4.95;;;;;;;;;;5064666;28;20568;-78
2022/04/27 00:06:14;;;;;;;11.52;5.47;;;;;;;;;;5058675;28;20075;-78
2022/04/27 00:08:41;;;;;;;8.70;4.65;;;;;;;;;;5066251;28;20057;-78
2022/04/27 00:11:07;;;;;;;8.88;5.60;;;;;;;;;;5067220;28;20499;-78
2022/04/27 00:13:33;;;;;;;12.98;5.93;;;;;;;;;;5067953;28;20664;-78
2022/04/27 00:16:00;;;;;;;10.15;5.40;;;;;;;;;;5069304;28;20218;-78
2022/04/27 00:18:27;;;;;;;11.23;5.03;;;;;;;;;;5066688;28;20146;-78
2022/04/27 00:20:53;;;;;;;10.35;5.35;;;;;;;;;;5058863;28;20057;-78
2022/04/27 00:23:21;;;;;;;9.77;5.28;;;;;;;;;;5062175;28;20049;-79
2022/04/27 00:25:47;;;;;;;11.18;4.57;;;;;;;;;;5077726;28;20603;-78
2022/04/27 00:28:14;;;;;;;10.70;4.97;;;;;;;;;;5083889;28;20084;-78
2022/04/27 00:30:40;;;;;;;10.80;5.30;;;;;;;;;;5065259;28;20064;-78
2022/04/27 00:33:07;;;;;;;8.80;5.25;;;;;;;;;;5085996;28;20061;-78
2022/04/27 00:35:33;;;;;;;9.02;5.32;;;;;;;;;;5071773;28;20059;-78
2022/04/27 00:38:00;;;;;;;9.15;4.90;;;;;;;;;;5064726;28;20049;-78
2022/04/27 00:40:26;;;;;;;8.13;4.57;;;;;;;;;;5055150;28;20084;-78
2022/04/27 00:42:52;;;;;;;10.77;4.80;;;;;;;;;;5067811;28;20144;-78
2022/04/27 00:45:19;;;;;;;9.68;4.60;;;;;;;;;;5082850;28;20144;-78
2022/04/27 00:47:45;;;;;;;10.27;5.40;;;;;;;;;;5084446;28;20496;-78
2022/04/27 00:50:12;;;;;;;11.55;4.47;;;;;;;;;;5066504;28;20080;-78
2022/04/27 00:52:38;;;;;;;8.20;4.95;;;;;;;;;;5068849;28;20043;-78
2022/04/27 00:55:05;;;;;;;10.85;5.07;;;;;;;;;;5067405;28;20083;-78
2022/04/27 00:57:33;;;;;;;8.43;4.88;;;;;;;;;;5070648;28;20072;-77
2022/04/27 00:59:59;;;;;;;8.57;4.70;;;;;;;;;;5071212;28;20080;-78
2022/04/27 01:02:25;;;;;;;9.95;4.40;;;;;;;;;;5069223;28;20149;-78
2022/04/27 01:04:52;;;;;;;9.85;5.28;;;;;;;;;;5067789;28;20053;-78
2022/04/27 01:07:18;;;;;;;8.82;4.68;;;;;;;;;;5070587;28;20081;-78
2022/04/27 01:09:45;;;;;;;10.02;5.40;;;;;;;;;;5073972;28;20233;-78
2022/04/27 01:12:11;;;;;;;9.50;4.70;;;;;;;;;;5085495;28;20143;-78
2022/04/27 01:14:45;;;;;;;7.75;4.35;;;;;;;;;;5073240;28;20081;-78
2022/04/27 01:17:12;;;;;;;9.15;4.63;;;;;;;;;;5082792;28;20100;-78
2022/04/27 01:19:38;;;;;;;9.32;4.53;;;;;;;;;;5051598;28;20666;-78
2022/04/27 01:22:05;;;;;;;10.48;4.82;;;;;;;;;;5086785;28;20057;-78
2022/04/27 01:24:31;;;;;;;9.88;5.03;;;;;;;;;;5067922;28;20140;-78
2022/04/27 01:26:58;;;;;;;9.95;4.88;;;;;;;;;;5070735;28;20076;-78
2022/04/27 01:29:25;;;;;;;9.13;4.63;;;;;;;;;;5065394;28;20061;-78
2022/04/27 01:31:53;;;;;;;8.10;4.28;;;;;;;;;;5068947;28;20088;-78
2022/04/27 01:34:20;;;;;;;12.10;4.90;;;;;;;;;;5069168;28;20057;-78
2022/04/27 01:36:46;;;;;;;10.20;4.82;;;;;;;;;;5067217;28;20139;-78
2022/04/27 01:39:13;;;;;;;10.20;4.85;;;;;;;;;;5091389;28;20056;-78
2022/04/27 01:41:40;;;;;;;8.23;4.50;;;;;;;;;;5069301;28;20147;-78
2022/04/27 01:44:06;;;;;;;9.13;5.05;;;;;;;;;;5070435;28;20096;-78
2022/04/27 01:46:32;;;;;;;9.95;5.03;;;;;;;;;;5068774;28;20114;-78
2022/04/27 01:49:00;;;;;;;9.50;4.55;;;;;;;;;;5070647;28;20053;-78
2022/04/27 01:54:15;;;;;;;10.57;4.85;;;;;;;;;;5049446;28;20069;-78
2022/04/27 01:56:43;;;;;;;7.97;4.60;;;;;;;;;;5074026;28;20044;-78
2022/04/27 01:59:10;;;;;;;9.23;4.95;;;;;;;;;;5090442;28;20127;-78
2022/04/27 02:01:36;;;;;;;11.50;5.35;;;;;;;;;;5082026;28;20076;-78
2022/04/27 02:04:03;;;;;;;9.60;4.70;;;;;;;;;;5067012;28;20084;-78
2022/04/27 02:06:30;;;;;;;12.25;5.07;;;;;;;;;;5068620;28;20110;-78
2022/04/27 02:08:56;;;;;;;10.35;5.32;;;;;;;;;;5069511;28;20080;-78
2022/04/27 02:11:26;;;;;;;11.48;4.57;;;;;;;;;;5068695;28;20144;-78
2022/04/27 02:13:55;;;;;;;10.50;4.68;;;;;;;;;;5068629;28;20057;-78
2022/04/27 02:16:24;;;;;;;8.27;4.45;;;;;;;;;;5070064;28;20087;-78
2022/04/27 02:18:52;;;;;;;8.75;4.60;;;;;;;;;;5068612;28;20063;-78
2022/04/27 02:21:20;;;;;;;9.45;4.85;;;;;;;;;;5068284;28;20144;-78
2022/04/27 02:23:47;;;;;;;7.95;4.75;;;;;;;;;;5068098;28;20060;-78
2022/04/27 02:26:13;;;;;;;8.70;4.60;;;;;;;;;;5069634;28;20087;-78
2022/04/27 02:28:39;;;;;;;9.95;4.82;;;;;;;;;;5069401;28;20183;-78
2022/04/27 02:31:06;;;;;;;9.27;4.88;;;;;;;;;;5066987;28;20562;-78
2022/04/27 02:33:33;;;;;;;9.18;4.80;;;;;;;;;;5069717;28;20750;-78
2022/04/27 02:35:59;;;;;;;8.15;4.90;;;;;;;;;;5067416;28;20053;-78
2022/04/27 02:38:27;;;;;;;9.65;4.80;;;;;;;;;;5069422;28;20136;-78
2022/04/27 02:40:54;;;;;;;7.45;4.10;;;;;;;;;;5070111;28;20057;-78
2022/04/27 02:43:23;;;;;;;8.00;4.55;;;;;;;;;;5066996;28;20520;-78
2022/04/27 02:45:50;;;;;;;10.80;4.97;;;;;;;;;;5068739;28;20101;-78
2022/04/27 02:48:16;;;;;;;9.27;4.50;;;;;;;;;;5058553;28;20815;-78
2022/04/27 02:53:28;;;;;;;8.80;4.60;;;;;;;;;;5067678;28;20115;-78
2022/04/27 02:55:54;;;;;;;9.02;4.70;;;;;;;;;;5069056;28;20144;-78
2022/04/27 02:58:21;;;;;;;8.40;4.70;;;;;;;;;;5065882;28;20091;-78
2022/04/27 03:00:47;;;;;;;8.75;4.45;;;;;;;;;;5066944;28;20495;-78
2022/04/27 03:03:13;;;;;;;8.07;4.53;;;;;;;;;;5068037;28;20061;-78
2022/04/27 03:05:40;;;;;;;7.53;3.83;;;;;;;;;;5067840;28;20080;-78
2022/04/27 03:08:08;;;;;;;10.65;4.63;;;;;;;;;;5066896;28;20049;-78
2022/04/27 03:10:34;;;;;;;10.35;4.70;;;;;;;;;;5067107;28;20049;-78
2022/04/27 03:13:00;;;;;;;8.98;5.00;;;;;;;;;;5067126;28;20065;-78
2022/04/27 03:15:27;;;;;;;9.07;5.00;;;;;;;;;;5067990;28;20149;-78
2022/04/27 03:20:39;;;;;;;11.32;5.03;;;;;;;;;;5060721;28;20506;-78
2022/04/27 03:23:05;;;;;;;11.05;4.95;;;;;;;;;;5066475;28;20089;-78
2022/04/27 03:25:33;;;;;;;10.27;4.95;;;;;;;;;;5067877;28;20049;-78
2022/04/27 03:27:59;;;;;;;9.30;5.03;;;;;;;;;;5066152;28;20060;-78
2022/04/27 03:30:26;;;;;;;10.07;4.70;;;;;;;;;;5065936;28;20141;-78
2022/04/27 03:32:54;;;;;;;8.45;5.10;;;;;;;;;;5062134;28;20099;-78
2022/04/27 03:35:20;;;;;;;11.93;5.20;;;;;;;;;;5082649;28;20079;-78
2022/04/27 03:37:46;;;;;;;10.27;5.50;;;;;;;;;;5066977;28;20115;-78
2022/04/27 03:40:13;;;;;;;11.80;5.63;;;;;;;;;;5065641;28;20052;-79
2022/04/27 03:42:40;;;;;;;9.40;4.70;;;;;;;;;;5066198;28;20148;-78
2022/04/27 03:45:06;;;;;;;11.32;4.82;;;;;;;;;;5066124;28;20084;-78
2022/04/27 03:47:33;;;;;;;10.77;4.95;;;;;;;;;;5067538;28;20143;-78
2022/04/27 03:50:04;;;;;;;10.18;4.82;;;;;;;;;;5066144;28;20079;-78
2022/04/27 03:52:30;;;;;;;;;;;;;;;;;;5066331;28;20526;-78
2022/04/27 03:55:00;;;;;;;9.13;4.80;;;;;;;;;;5044798;28;47191;-78
2022/04/27 03:57:31;;;;;;;8.10;4.53;;;;;;;;;;5068928;28;20049;-78
2022/04/27 03:59:57;;;;;;;10.25;5.07;;;;;;;;;;5064557;28;20061;-78
2022/04/27 04:02:24;;;;;;;11.13;4.78;;;;;;;;;;5054163;28;20176;-78
2022/04/27 04:04:50;;;;;;;10.02;4.20;;;;;;;;;;5051526;28;20079;-78
2022/04/27 04:07:17;;;;;;;8.85;4.65;;;;;;;;;;5066338;28;20081;-79
2022/04/27 04:09:43;;;;;;;9.95;4.57;;;;;;;;;;5066765;28;20060;-77
2022/04/27 04:12:09;;;;;;;12.57;3.97;;;;;;;;;;5065148;28;20132;-78
2022/04/27 04:14:36;;;;;;;9.52;4.30;;;;;;;;;;5066452;28;20140;-78
2022/04/27 04:17:03;;;;;;;7.47;3.75;;;;;;;;;;5066745;28;20851;-78
2022/04/27 04:19:32;;;;;;;7.65;4.05;;;;;;;;;;5065069;28;20048;-78
2022/04/27 04:21:59;;;;;;;8.30;3.90;;;;;;;;;;5067087;28;20069;-79
2022/04/27 04:24:26;;;;;;;7.50;3.88;;;;;;;;;;5068077;28;20061;-78
2022/04/27 04:29:39;;;;;;;9.70;4.15;;;;;;;;;;5070594;28;20072;-79
2022/04/27 04:32:06;;;;;;;9.50;4.38;;;;;;;;;;5071837;28;20068;-79
2022/04/27 04:34:32;;;;;;;11.88;4.90;;;;;;;;;;5071854;28;20053;-78
2022/04/27 04:37:00;;;;;;;9.00;4.45;;;;;;;;;;5068894;28;20443;-79
2022/04/27 04:39:26;;;;;;;10.63;5.10;;;;;;;;;;5069579;28;20057;-78
2022/04/27 04:41:52;;;;;;;7.88;4.22;;;;;;;;;;5069862;28;20108;-78
2022/04/27 04:44:19;;;;;;;9.77;4.65;;;;;;;;;;5067680;28;20061;-78
2022/04/27 04:46:45;;;;;;;9.02;4.50;;;;;;;;;;5073208;28;20052;-79
2022/04/27 04:49:12;;;;;;;9.27;4.22;;;;;;;;;;5071771;28;20158;-79
2022/04/27 04:51:38;;;;;;;11.95;4.65;;;;;;;;;;5050497;28;20087;-78
2022/04/27 04:54:05;;;;;;;11.20;5.00;;;;;;;;;;5051156;28;20132;-78
2022/04/27 04:56:31;;;;;;;9.73;4.40;;;;;;;;;;5055628;28;20053;-79
2022/04/27 04:58:57;;;;;;;7.20;4.35;;;;;;;;;;5071792;28;20494;-79
2022/04/27 05:01:24;;;;;;;8.48;4.60;;;;;;;;;;5070691;28;20081;-78
2022/04/27 05:03:50;;;;;;;11.10;4.95;;;;;;;;;;5069370;28;20091;-78
2022/04/27 05:06:16;;;;;;;9.98;4.68;;;;;;;;;;5069898;28;20099;-78
2022/04/27 05:08:43;;;;;;;10.77;5.20;;;;;;;;;;5068924;28;20049;-78
2022/04/27 05:11:09;;;;;;;9.13;4.75;;;;;;;;;;5069826;28;20588;-79
2022/04/27 05:13:39;;;;;;;10.48;4.65;;;;;;;;;;5070315;28;20052;-78
2022/04/27 05:16:05;;;;;;;10.95;4.90;;;;;;;;;;5067943;28;20136;-78
2022/04/27 05:18:32;;;;;;;10.15;4.80;;;;;;;;;;5071260;28;20059;-79
2022/04/27 05:20:58;;;;;;;8.82;3.90;;;;;;;;;;5070449;28;20048;-78
2022/04/27 05:23:25;;;;;;;8.52;4.70;;;;;;;;;;5070713;28;20507;-77
2022/04/27 05:25:51;;;;;;;9.38;5.00;;;;;;;;;;5069139;28;20604;-78
2022/04/27 05:28:17;;;;;;;8.93;4.88;;;;;;;;;;5070984;28;20127;-78
2022/04/27 05:33:29;;;;;;;11.48;5.03;;;;;;;;;;5070324;28;20587;-78
2022/04/27 05:35:55;;;;;;;9.32;5.07;;;;;;;;;;5067706;28;20053;-78
2022/04/27 05:38:21;;;;;;;10.65;4.97;;;;;;;;;;5061590;28;20052;-79
2022/04/27 05:40:48;;;;;;;11.07;5.18;;;;;;;;;;5068607;28;20526;-78
2022/04/27 05:43:16;;;;;;;13.40;5.82;;;;;;;;;;5067701;28;20509;-78
2022/04/27 05:45:42;;;;;;;9.35;5.00;;;;;;;;;;5052651;28;20057;-79
2022/04/27 05:48:08;;;;;;;9.40;5.57;;;;;;;;;;5068831;28;20068;-78
2022/04/27 05:50:36;;;;;;;10.50;4.97;;;;;;;;;;5068007;28;20084;-78
2022/04/27 05:53:04;;;;;;;9.95;5.30;;;;;;;;;;5070065;28;20500;-79
2022/04/27 05:55:31;;;;;;;9.30;5.00;;;;;;;;;;5066481;28;20052;-79
2022/04/27 05:57:57;;;;;;;10.13;4.97;;;;;;;;;;5067313;28;20083;-78
2022/04/27 06:00:24;;;;;;;10.57;5.40;;;;;;;;;;5063791;28;20624;-79
2022/04/27 06:02:50;;;;;;;11.02;5.20;;;;;;;;;;5046897;28;20053;-78
2022/04/27 06:05:17;;;;;;;10.82;5.55;;;;;;;;;;5055233;28;20083;-77
2022/04/27 06:07:46;;;;;;;11.75;5.07;;;;;;;;;;5067813;28;20064;-79
2022/04/27 06:10:13;;;;;;;9.63;5.00;;;;;;;;;;5069402;28;20049;-78
2022/04/27 06:12:46;;;;;;;13.20;6.05;;;;;;;;;;5067072;28;20053;-79
2022/04/27 06:15:13;;;;;;;11.88;6.03;;;;;;;;;;5066818;28;20144;-78
2022/04/27 06:17:40;;;;;;;10.85;5.30;;;;;;;;;;5062308;28;20168;-79
2022/04/27 06:20:06;;;;;;;11.52;5.97;;;;;;;;;;5048864;28;20144;-78
2022/04/27 06:22:33;;;;;;;12.18;6.15;;;;;;;;;;5058354;28;20183;-78
2022/04/27 06:24:59;;;;;;;11.32;6.30;;;;;;;;;;5067424;28;20524;-79
2022/04/27 06:27:26;;;;;;;12.23;6.03;;;;;;;;;;5068713;28;20056;-79
2022/04/27 06:29:52;;;;;;;10.85;6.05;;;;;;;;;;5065921;28;21512;-79
2022/04/27 06:32:18;;;;;;;11.88;5.88;;;;;;;;;;5063094;28;21151;-78
2022/04/27 06:34:45;;;;;;;11.52;6.00;;;;;;;;;;5068235;28;20080;-78
2022/04/27 06:37:11;;;;;;;11.38;6.93;;;;;;;;;;5063120;28;20545;-78
2022/04/27 06:39:42;;;;;;;13.30;6.05;;;;;;;;;;5086156;28;20471;-78
2022/04/27 06:42:09;;;;;;;9.75;5.80;;;;;;;;;;5068290;28;20049;-78
2022/04/27 06:44:35;;;;;;;12.15;5.85;;;;;;;;;;5066130;28;20085;-77
2022/04/27 06:47:03;;;;;;;11.75;6.35;;;;;;;;;;5061206;28;20776;-79
2022/04/27 06:49:30;;;;;;;12.75;6.18;;;;;;;;;;5049047;28;20054;-79
2022/04/27 06:51:56;;;;;;;14.77;6.15;;;;;;;;;;5058339;28;20061;-79
2022/04/27 06:54:23;;;;;;;10.18;5.80;;;;;;;;;;5071985;28;20104;-79
2022/04/27 06:56:49;;;;;;;13.77;5.85;;;;;;;;;;5089681;28;20059;-79
2022/04/27 06:59:15;;;;;;;13.00;6.03;;;;;;;;;;5069199;28;20057;-78
2022/04/27 07:01:42;;;;;;;16.05;5.93;;;;;;;;;;5068085;28;20045;-78
2022/04/27 07:04:11;;;;;;;9.15;5.57;;;;;;;;;;5067754;28;20709;-79
2022/04/27 07:06:38;;;;;;;11.65;5.63;;;;;;;;;;5068690;28;20052;-78
2022/04/27 07:09:05;;;;;;;11.45;5.97;;;;;;;;;;5058578;28;20572;-78
2022/04/27 07:11:32;;;;;;;10.25;5.18;;;;;;;;;;5065666;28;20143;-79
2022/04/27 07:13:58;;;;;;;11.82;5.68;;;;;;;;;;5066451;28;20432;-79
2022/04/27 07:16:24;;;;;;;12.43;5.57;;;;;;;;;;5049390;28;20049;-78
2022/04/27 07:18:53;;;;;;;11.68;5.28;;;;;;;;;;5058602;28;20909;-78
2022/04/27 07:21:20;;;;;;;8.88;4.78;;;;;;;;;;5067534;28;20401;-79
2022/04/27 07:23:46;;;;;;;10.25;4.90;;;;;;;;;;5068584;28;20079;-78
2022/04/27 07:26:13;;;;;;;13.98;4.68;;;;;;;;;;5067846;28;20510;-76
2022/04/27 07:28:41;;;;;;;9.55;4.60;;;;;;;;;;5065894;28;20053;-77
2022/04/27 07:31:07;;;;;;;9.68;4.68;;;;;;;;;;5066175;28;20052;-79
2022/04/27 07:33:34;;;;;;;10.35;4.20;;;;;;;;;;5065960;28;20131;-78
2022/04/27 07:36:01;;;;;;;9.70;4.30;;;;;;;;;;5064341;28;20084;-78
2022/04/27 07:38:27;;;;;;;13.30;4.43;;;;;;;;;;5066065;28;20136;-78
2022/04/27 07:40:53;;;;;;;8.25;3.90;;;;;;;;;;5061679;28;20356;-78
2022/04/27 07:43:23;;;;;;;9.65;3.55;;;;;;;;;;5054550;28;20096;-77
2022/04/27 07:45:49;;;;;;;8.00;2.95;;;;;;;;;;5080975;28;20052;-77
2022/04/27 07:48:16;;;;;;;7.43;3.58;;;;;;;;;;5075042;28;20594;-78
2022/04/27 07:50:42;;;;;;;7.55;3.35;;;;;;;;;;5064965;28;20182;-77
2022/04/27 07:53:08;;;;;;;5.53;3.30;;;;;;;;;;5050879;28;20057;-77
2022/04/27 07:55:35;;;;;;;5.70;3.30;;;;;;;;;;5078603;28;20166;-77
2022/04/27 07:58:01;;;;;;;5.90;3.22;;;;;;;;;;5068734;28;20508;-78
2022/04/27 08:00:29;;;;;;;8.23;3.50;;;;;;;;;;5053240;28;20067;-77
2022/04/27 08:02:55;;;;;;;9.13;3.10;;;;;;;;;;5063872;28;20154;-77
2022/04/27 08:05:22;;;;;;;8.52;3.00;;;;;;;;;;5066280;28;20049;-78
2022/04/27 08:07:49;;;;;;;9.18;2.90;;;;;;;;;;5064739;28;20158;-78
2022/04/27 08:10:16;;;;;;;7.95;2.53;;;;;;;;;;5064879;28;20123;-77
2022/04/27 08:12:46;;;;;;;6.07;2.78;;;;;;;;;;5064657;28;20140;-77
2022/04/27 08:15:14;;;;;;;7.13;2.50;;;;;;;;;;5065510;28;20056;-77
2022/04/27 08:17:54;;;;;;;7.13;2.38;;;;;;;;;;5064520;28;20443;-78
2022/04/27 08:23:07;;;;;;;6.90;2.42;;;;;;;;;;5061651;28;20338;-77
2022/04/27 08:25:34;;;;;;;7.05;2.45;;;;;;;;;;5064745;28;20107;-77
2022/04/27 08:28:03;;;;;;;7.20;2.45;;;;;;;;;;5064638;28;20053;-77
2022/04/27 08:30:29;;;;;;;5.25;1.52;;;;;;;;;;5066129;28;20135;-77
2022/04/27 08:32:59;;;;;;;6.28;2.38;;;;;;;;;;5062989;28;20053;-77
2022/04/27 08:35:26;;;;;;;5.87;2.60;;;;;;;;;;5058749;28;20049;-78
2022/04/27 08:37:53;;;;;;;5.40;2.00;;;;;;;;;;5064529;28;20123;-78
2022/04/27 08:40:19;;;;;;;5.82;2.10;;;;;;;;;;5064880;28;20080;-77
2022/04/27 08:42:48;;;;;;;6.25;2.40;;;;;;;;;;5064634;28;20068;-78
2022/04/27 08:45:15;;;;;;;10.90;2.70;;;;;;;;;;5062212;28;20080;-77
2022/04/27 08:47:41;;;;;;;7.03;2.00;;;;;;;;;;5047778;28;20077;-77
2022/04/27 08:50:14;;;;;;;5.70;2.15;;;;;;;;;;5064393;28;20138;-77
2022/04/27 08:52:41;;;;;;;7.57;2.28;;;;;;;;;;5061246;28;20085;-77
2022/04/27 08:55:08;;;;;;;8.27;2.20;;;;;;;;;;5057423;28;20057;-77
2022/04/27 08:57:34;;;;;;;10.40;2.45;;;;;;;;;;5058114;28;20052;-76
2022/04/27 09:00:05;;;;;;;7.57;3.45;;;;;;;;;;5064392;28;20053;-77
2022/04/27 09:02:31;;;;;;;;;;;;;;;;;;5060719;28;20527;-77
2022/04/27 09:05:04;;;;;;;8.43;2.63;;;;;;;;;;5063442;28;45361;-77
2022/04/27 09:07:38;;;;;;;6.28;2.45;;;;;;;;;;5053969;28;20522;-76
2022/04/27 09:10:06;;;;;;;7.57;2.80;;;;;;;;;;5057989;28;20055;-76
2022/04/27 09:12:32;;;;;;;6.05;2.30;;;;;;;;;;5053607;28;20064;-75
2022/04/27 09:15:08;;;;;;;5.57;2.03;;;;;;;;;;5084420;28;20143;-74
2022/04/27 09:23:06;;;;;;;8.13;2.25;;;;;;;;;;5067956;28;20069;-75
2022/04/27 09:25:36;;;;;;;6.63;2.22;;;;;;;;;;5065819;28;20057;-75
2022/04/27 09:28:23;;;;;;;7.23;2.40;;;;;;;;;;5067715;28;20582;-76
2022/04/27 09:30:50;;;;;;;5.95;2.00;;;;;;;;;;5066207;28;20076;-75
2022/04/27 09:33:49;;;;;;;5.53;1.90;;;;;;;;;;5046811;28;20085;-75
2022/04/27 09:36:19;;;;;;;5.85;2.10;;;;;;;;;;5056099;28;20144;-75
2022/04/27 09:38:45;;;;;;;6.30;2.05;;;;;;;;;;5063919;28;20569;-75
2022/04/27 09:41:12;;;;;;;5.25;2.10;;;;;;;;;;5057722;28;20111;-74
2022/04/27 09:43:41;;;;;;;4.30;2.00;;;;;;;;;;5052224;28;20049;-75
2022/04/27 09:46:22;;;;;;;6.57;2.03;;;;;;;;;;5049621;28;20049;-75
2022/04/27 09:49:11;;;;;;;7.45;2.30;;;;;;;;;;5057622;28;20822;-75
2022/04/27 09:52:01;;;;;;;7.28;2.10;;;;;;;;;;5061955;28;20060;-75
2022/04/27 09:54:28;;;;;;;6.63;1.92;;;;;;;;;;5063241;28;20053;-75
2022/04/27 09:56:59;;;;;;;4.97;1.88;;;;;;;;;;5064812;28;20148;-75
2022/04/27 09:59:29;;;;;;;5.95;2.05;;;;;;;;;;5060305;28;20084;-74
2022/04/27 10:01:57;;;;;;;;;;;;;;;;;;5062882;28;20057;-74
2022/04/27 10:04:28;;;;;;;4.85;1.63;;;;;;;;;;5063728;28;48099;-76
2022/04/27 10:06:56;;;;;;;4.85;1.70;;;;;;;;;;5061065;28;20533;-75
2022/04/27 10:09:22;;;;;;;7.13;1.80;;;;;;;;;;5063031;28;20078;-75
2022/04/27 10:12:11;;;;;;;4.95;1.80;;;;;;;;;;5067109;28;20053;-75
2022/04/27 10:14:38;;;;;;;4.47;1.95;;;;;;;;;;5062516;28;20495;-75
2022/04/27 10:17:05;;;;;;;6.20;1.80;;;;;;;;;;5066478;28;20053;-75
2022/04/27 10:19:31;;;;;;;9.55;1.90;;;;;;;;;;5062105;28;20565;-75
2022/04/27 10:21:59;;;;;;;4.97;2.00;;;;;;;;;;5062110;28;20103;-75
2022/04/27 10:24:28;;;;;;;6.60;1.85;;;;;;;;;;5066155;28;20561;-75
2022/04/27 10:27:12;;;;;;;5.93;2.10;;;;;;;;;;5060963;28;20140;-75
2022/04/27 10:29:38;;;;;;;6.40;1.70;;;;;;;;;;5067389;28;20152;-75
2022/04/27 10:32:05;;;;;;;5.82;1.90;;;;;;;;;;5068326;28;20110;-75
2022/04/27 10:34:33;;;;;;;5.25;1.65;;;;;;;;;;5059006;28;20656;-75
2022/04/27 10:37:00;;;;;;;5.43;1.77;;;;;;;;;;5064235;28;20081;-75
2022/04/27 10:39:33;;;;;;;7.25;1.95;;;;;;;;;;5066324;28;20206;-75
2022/04/27 10:42:03;;;;;;;6.03;1.70;;;;;;;;;;5046667;28;20057;-75
2022/04/27 10:44:47;;;;;;;5.78;1.88;;;;;;;;;;5052159;28;20583;-75
2022/04/27 10:47:14;;;;;;;4.70;1.85;;;;;;;;;;5057035;28;20091;-75
2022/04/27 10:49:41;;;;;;;4.13;1.90;;;;;;;;;;5062427;28;20057;-75
2022/04/27 10:52:08;;;;;;;5.72;2.20;;;;;;;;;;5067149;28;20053;-76
2022/04/27 10:54:39;;;;;;;4.95;1.80;;;;;;;;;;5079673;28;20592;-75
2022/04/27 10:57:14;;;;;;;4.82;2.10;;;;;;;;;;5062969;28;20108;-75
2022/04/27 10:59:45;;;;;;;5.57;1.80;;;;;;;;;;5055427;28;20064;-76
2022/04/27 11:02:30;;;;;;;11.05;2.30;;;;;;;;;;5067634;28;20076;-76
2022/04/27 11:04:56;;;;;;;5.57;1.95;;;;;;;;;;5065004;28;20061;-76
2022/04/27 11:07:29;;;;;;;5.03;2.13;;;;;;;;;;5064156;28;20079;-75
2022/04/27 11:10:05;;;;;;;6.00;2.00;;;;;;;;;;5063238;28;20603;-76
2022/04/27 11:12:32;;;;;;;5.18;2.00;;;;;;;;;;5061802;28;20094;-76
2022/04/27 11:15:01;;;;;;;5.25;2.03;;;;;;;;;;5066140;28;20088;-77
2022/04/27 11:17:28;;;;;;;6.30;2.40;;;;;;;;;;5061882;28;20067;-76
2022/04/27 11:19:55;;;;;;;4.90;2.05;;;;;;;;;;5064327;28;20060;-76
2022/04/27 11:22:22;;;;;;;6.22;2.25;;;;;;;;;;5063821;28;20132;-75
2022/04/27 11:24:53;;;;;;;7.82;2.30;;;;;;;;;;5057730;28;20140;-75
2022/04/27 11:27:23;;;;;;;8.68;2.60;;;;;;;;;;5065769;28;20085;-75
2022/04/27 11:29:53;;;;;;;12.48;3.17;;;;;;;;;;5066509;28;20060;-76
2022/04/27 11:32:20;;;;;;;5.57;2.30;;;;;;;;;;5057124;28;20131;-76
2022/04/27 11:34:46;;;;;;;11.80;2.60;;;;;;;;;;5065097;28;20129;-76
2022/04/27 11:37:15;;;;;;;7.57;2.30;;;;;;;;;;5053208;28;20080;-76
2022/04/27 11:39:42;;;;;;;6.20;2.25;;;;;;;;;;5063586;28;20051;-76
2022/04/27 11:42:10;;;;;;;7.43;2.30;;;;;;;;;;5054617;28;20144;-76
2022/04/27 11:44:36;;;;;;;13.43;3.20;;;;;;;;;;5066575;28;20104;-76
2022/04/27 11:47:03;;;;;;;13.73;3.05;;;;;;;;;;5066129;28;20577;-76
2022/04/27 11:49:35;;;;;;;10.60;2.75;;;;;;;;;;5047365;28;20053;-75
2022/04/27 11:52:02;;;;;;;7.80;2.45;;;;;;;;;;5053228;28;20049;-76
2022/04/27 11:54:29;;;;;;;8.27;2.38;;;;;;;;;;5060408;28;20411;-76
2022/04/27 11:57:00;;;;;;;6.13;2.70;;;;;;;;;;5063706;28;20052;-75
2022/04/27 11:59:47;;;;;;;5.07;2.25;;;;;;;;;;5046223;28;20084;-76
2022/04/27 12:02:14;;;;;;;8.38;2.42;;;;;;;;;;5055564;28;20049;-75
2022/04/27 12:04:41;;;;;;;7.10;2.13;;;;;;;;;;5064902;28;20487;-75
2022/04/27 12:07:14;;;;;;;5.13;2.35;;;;;;;;;;5065962;28;20049;-75
2022/04/27 12:09:41;;;;;;;6.60;2.08;;;;;;;;;;5065982;28;20504;-75
2022/04/27 12:12:11;;;;;;;6.82;2.20;;;;;;;;;;5067327;28;20130;-75
2022/04/27 12:14:38;;;;;;;5.75;2.13;;;;;;;;;;5062020;28;20067;-75
2022/04/27 12:17:07;;;;;;;5.20;2.40;;;;;;;;;;5065737;28;20103;-75
2022/04/27 12:19:34;;;;;;;8.75;2.40;;;;;;;;;;5065834;28;20566;-75
2022/04/27 12:22:14;;;;;;;6.90;2.33;;;;;;;;;;5063337;28;20103;-75
2022/04/27 12:24:46;;;;;;;5.60;2.20;;;;;;;;;;5066508;28;20055;-76
2022/04/27 12:27:19;;;;;;;7.30;2.40;;;;;;;;;;5065142;28;20049;-75
2022/04/27 12:29:46;;;;;;;6.55;2.33;;;;;;;;;;5063596;28;20088;-75
2022/04/27 12:32:13;;;;;;;6.60;2.22;;;;;;;;;;5052422;28;20128;-75
2022/04/27 12:37:31;;;;;;;6.38;2.17;;;;;;;;;;5054927;28;20164;-75
2022/04/27 12:40:16;;;;;;;8.23;2.15;;;;;;;;;;5065184;28;20756;-75
2022/04/27 12:42:59;;;;;;;5.32;2.30;;;;;;;;;;5062551;28;20053;-76
2022/04/27 12:45:26;;;;;;;7.40;2.00;;;;;;;;;;5061997;28;20053;-75
2022/04/27 12:47:52;;;;;;;4.85;2.20;;;;;;;;;;5058645;28;20527;-76
2022/04/27 12:50:19;;;;;;;5.90;2.35;;;;;;;;;;5051956;28;20132;-75
2022/04/27 12:52:46;;;;;;;5.38;2.28;;;;;;;;;;5068566;28;20107;-75
2022/04/27 12:55:13;;;;;;;7.95;2.58;;;;;;;;;;5064673;28;20053;-75
2022/04/27 12:57:44;;;;;;;6.45;2.40;;;;;;;;;;5068953;28;20144;-75
2022/04/27 13:00:11;;;;;;;7.88;2.58;;;;;;;;;;5068065;28;20048;-75
2022/04/27 13:02:38;;;;;;;21.08;2.65;;;;;;;;;;5069199;28;20057;-75
2022/04/27 13:05:05;;;;;;;5.47;2.13;;;;;;;;;;5062514;28;20111;-75
2022/04/27 13:07:31;;;;;;;5.25;2.00;;;;;;;;;;5057347;28;20049;-75
2022/04/27 13:12:43;;;;;;;7.07;2.58;;;;;;;;;;5057230;28;20553;-75
2022/04/27 13:15:10;;;;;;;5.80;2.30;;;;;;;;;;5066329;28;20131;-75
2022/04/27 13:17:37;;;;;;;8.27;2.25;;;;;;;;;;5059765;28;20085;-75
2022/04/27 13:20:05;;;;;;;9.45;2.45;;;;;;;;;;5067203;28;20055;-75
2022/04/27 13:22:32;;;;;;;5.28;2.50;;;;;;;;;;5062985;28;20140;-75
2022/04/27 13:24:58;;;;;;;7.43;2.28;;;;;;;;;;5061156;28;20052;-75
2022/04/27 13:27:25;;;;;;;5.88;2.33;;;;;;;;;;5067259;28;20049;-75
2022/04/27 13:29:52;;;;;;;5.10;2.20;;;;;;;;;;5064033;28;20040;-75
2022/04/27 13:32:19;;;;;;;7.03;2.20;;;;;;;;;;5067265;28;20687;-75
2022/04/27 13:34:46;;;;;;;6.97;2.42;;;;;;;;;;5066461;28;20057;-75
2022/04/27 13:37:12;;;;;;;10.25;2.63;;;;;;;;;;5064142;28;20061;-75
2022/04/27 13:39:39;;;;;;;6.43;2.00;;;;;;;;;;5064694;28;20650;-75
2022/04/27 13:42:06;;;;;;;8.27;3.05;;;;;;;;;;5058423;28;20551;-74
2022/04/27 13:44:33;;;;;;;8.15;2.78;;;;;;;;;;5067977;28;20057;-75
2022/04/27 13:47:00;;;;;;;7.47;2.33;;;;;;;;;;5061468;28;20099;-75
2022/04/27 13:49:27;;;;;;;8.63;2.53;;;;;;;;;;5067899;28;20085;-75
2022/04/27 13:51:55;;;;;;;7.80;2.20;;;;;;;;;;5063254;28;20086;-75
2022/04/27 13:54:21;;;;;;;5.22;2.22;;;;;;;;;;5064434;28;20139;-75
2022/04/27 13:56:47;;;;;;;8.27;2.63;;;;;;;;;;5064453;28;20139;-74
2022/04/27 13:59:14;;;;;;;10.48;3.60;;;;;;;;;;5085396;28;20092;-75
2022/04/27 14:01:41;;;;;;;11.30;4.88;;;;;;;;;;5077986;28;20045;-75
2022/04/27 14:04:07;;;;;;;12.77;6.10;;;;;;;;;;5067980;28;20055;-75
2022/04/27 14:06:34;;;;;;;15.45;8.50;;;;;;;;;;5062755;28;20049;-75
2022/04/27 14:09:00;;;;;;;9.45;4.75;;;;;;;;;;5068540;28;20049;-75
2022/04/27 14:14:12;;;;;;;10.10;2.20;;;;;;;;;;5058999;28;20050;-75
2022/04/27 14:19:24;;;;;;;9.50;2.30;;;;;;;;;;5059590;28;20537;-75
2022/04/27 14:21:53;;;;;;;9.38;2.40;;;;;;;;;;5063856;28;20128;-74
2022/04/27 14:24:19;;;;;;;7.60;2.38;;;;;;;;;;5067009;28;20057;-75
2022/04/27 14:26:46;;;;;;;6.20;2.20;;;;;;;;;;5066314;28;20160;-75
2022/04/27 14:29:13;;;;;;;7.32;2.65;;;;;;;;;;5066276;28;21280;-75
2022/04/27 14:31:40;;;;;;;5.65;2.22;;;;;;;;;;5059963;28;20056;-75
2022/04/27 14:34:07;;;;;;;6.55;2.40;;;;;;;;;;5066521;28;20080;-77
2022/04/27 14:36:33;;;;;;;13.73;2.55;;;;;;;;;;5061618;28;20127;-75
2022/04/27 14:39:00;;;;;;;10.00;2.67;;;;;;;;;;5065882;28;20084;-75
2022/04/27 14:41:27;;;;;;;7.55;2.67;;;;;;;;;;5065569;28;20614;-76
2022/04/27 14:43:53;;;;;;;8.13;2.20;;;;;;;;;;5066625;28;20068;-76
2022/04/27 14:46:20;;;;;;;7.75;2.80;;;;;;;;;;5065093;28;20091;-75
2022/04/27 14:48:47;;;;;;;9.25;2.95;;;;;;;;;;5064410;28;20957;-75
2022/04/27 14:51:13;;;;;;;6.18;2.60;;;;;;;;;;5060592;28;20836;-75
2022/04/27 14:53:39;;;;;;;8.10;2.80;;;;;;;;;;5067179;28;20053;-74
2022/04/27 14:56:06;;;;;;;6.80;2.30;;;;;;;;;;5064557;28;20107;-75
2022/04/27 14:58:32;;;;;;;7.82;2.45;;;;;;;;;;5065955;28;20167;-75
2022/04/27 15:00:59;;;;;;;9.52;2.60;;;;;;;;;;5060482;28;20311;-74
2022/04/27 15:03:28;;;;;;;8.50;2.20;;;;;;;;;;5067271;28;20049;-74
2022/04/27 15:05:55;;;;;;;9.65;2.88;;;;;;;;;;5067162;28;20544;-75
2022/04/27 15:08:21;;;;;;;11.00;3.10;;;;;;;;;;5064654;28;20053;-75
2022/04/27 15:10:47;;;;;;;12.07;4.55;;;;;;;;;;5061441;28;20053;-75
2022/04/27 15:13:14;;;;;;;10.00;3.13;;;;;;;;;;5066051;28;20072;-74
2022/04/27 15:15:41;;;;;;;8.98;2.38;;;;;;;;;;5065525;28;20081;-75
2022/04/27 15:18:07;;;;;;;8.30;3.08;;;;;;;;;;5065576;28;20580;-75